createdAt,value
2017-05-19T00:01:47.100Z,14.80
2017-05-19T00:04:14.943Z,14.80
2017-05-19T00:06:42.698Z,14.70
2017-05-19T00:09:10.416Z,14.80
2017-05-19T00:11:38.160Z,14.80
2017-05-19T00:14:05.886Z,14.80
2017-05-19T00:16:33.679Z,14.90
2017-05-19T00:19:01.748Z,14.80
2017-05-19T00:21:29.475Z,14.80
2017-05-19T00:23:57.204Z,14.70
2017-05-19T00:26:25.226Z,14.60
2017-05-19T00:28:52.948Z,14.50
2017-05-19T00:31:20.676Z,14.40
2017-05-19T00:33:49.053Z,14.40
2017-05-19T00:36:16.781Z,14.50
2017-05-19T00:38:44.508Z,14.50
2017-05-19T00:41:12.851Z,14.50
2017-05-19T00:43:40.572Z,14.50
2017-05-19T00:46:08.343Z,14.50
2017-05-19T00:48:36.082Z,14.50
2017-05-19T00:51:03.814Z,14.40
2017-05-19T00:53:32.297Z,14.30
2017-05-19T00:56:00.784Z,14.30
2017-05-19T00:58:29.272Z,14.40
2017-05-19T01:00:57.740Z,14.40
2017-05-19T01:03:26.422Z,14.40
2017-05-19T01:05:54.144Z,14.40
2017-05-19T01:08:21.868Z,14.40
2017-05-19T01:10:49.813Z,14.40
2017-05-19T01:13:17.552Z,14.30
2017-05-19T01:15:45.285Z,14.30
2017-05-19T01:18:13.408Z,14.30
2017-05-19T01:20:41.140Z,14.20
2017-05-19T01:23:08.871Z,14.10
2017-05-19T01:25:38.587Z,14.10
2017-05-19T01:28:06.307Z,14.10
2017-05-19T01:30:34.035Z,14.10
2017-05-19T01:33:01.936Z,14.10
2017-05-19T01:35:29.675Z,14.20
2017-05-19T01:37:57.404Z,14.20
2017-05-19T01:40:25.851Z,14.20
2017-05-19T01:42:54.336Z,14.20
2017-05-19T01:45:22.804Z,14.30
2017-05-19T01:47:50.732Z,14.30
2017-05-19T01:50:18.484Z,14.30
2017-05-19T01:52:46.207Z,14.20
2017-05-19T01:55:15.703Z,14.30
2017-05-19T01:57:43.427Z,14.30
2017-05-19T02:00:11.148Z,14.30
2017-05-19T02:02:39.632Z,14.30
2017-05-19T02:05:08.112Z,14.30
2017-05-19T02:07:36.577Z,14.30
2017-05-19T02:10:05.068Z,14.20
2017-05-19T02:12:33.527Z,14.20
2017-05-19T02:15:01.277Z,14.10
2017-05-19T02:17:30.084Z,14.10
2017-05-19T02:19:57.940Z,14.10
2017-05-19T02:22:25.668Z,14.10
2017-05-19T02:24:53.576Z,14.10
2017-05-19T02:27:21.300Z,14.10
2017-05-19T02:29:49.038Z,14.00
2017-05-19T02:32:16.792Z,14.00
2017-05-19T02:34:45.275Z,14.00
2017-05-19T02:37:13.740Z,14.00
2017-05-19T02:39:42.416Z,14.00
2017-05-19T02:42:10.140Z,14.10
2017-05-19T02:44:37.860Z,14.10
2017-05-19T02:47:05.836Z,14.20
2017-05-19T02:49:33.565Z,14.30
2017-05-19T02:52:01.288Z,14.20
2017-05-19T02:54:29.508Z,14.20
2017-05-19T02:56:57.236Z,14.10
2017-05-19T02:59:24.959Z,14.10
2017-05-19T03:01:53.448Z,14.00
2017-05-19T03:04:21.196Z,14.00
2017-05-19T03:06:49.664Z,13.90
2017-05-19T03:09:17.432Z,13.90
2017-05-19T03:11:45.895Z,13.90
2017-05-19T03:14:13.615Z,13.80
2017-05-19T03:16:42.248Z,13.80
2017-05-19T03:19:09.980Z,13.70
2017-05-19T03:21:38.179Z,13.60
2017-05-19T03:24:05.932Z,13.60
2017-05-19T03:26:33.656Z,13.70
2017-05-19T03:29:01.400Z,13.70
2017-05-19T03:31:29.895Z,13.60
2017-05-19T03:33:57.619Z,13.60
2017-05-19T03:36:25.364Z,13.70
2017-05-19T03:38:53.117Z,13.70
2017-05-19T03:41:20.843Z,13.80
2017-05-19T03:43:48.604Z,13.70
2017-05-19T03:46:16.361Z,13.80
2017-05-19T03:48:44.870Z,13.70
2017-05-19T03:51:12.599Z,13.70
2017-05-19T03:53:41.581Z,13.70
2017-05-19T03:56:09.307Z,13.70
2017-05-19T03:58:37.053Z,13.70
2017-05-19T04:01:04.997Z,13.80
2017-05-19T04:03:32.736Z,13.70
2017-05-19T04:06:01.201Z,13.60
2017-05-19T04:08:28.955Z,13.60
2017-05-19T04:10:56.688Z,13.60
2017-05-19T04:13:24.436Z,13.70
2017-05-19T04:15:53.164Z,13.80
2017-05-19T04:18:20.901Z,14.00
2017-05-19T04:20:48.632Z,14.00
2017-05-19T04:23:17.404Z,14.00
2017-05-19T04:25:45.136Z,14.10
2017-05-19T04:28:12.884Z,14.20
2017-05-19T04:30:41.244Z,14.30
2017-05-19T04:33:08.964Z,14.20
2017-05-19T04:35:36.701Z,14.20
2017-05-19T04:38:04.817Z,14.20
2017-05-19T04:40:33.287Z,14.30
2017-05-19T04:43:01.026Z,14.40
2017-05-19T04:45:29.019Z,14.50
2017-05-19T04:47:56.740Z,14.70
2017-05-19T04:50:24.465Z,14.90
2017-05-19T04:52:54.665Z,15.00
2017-05-19T04:55:22.398Z,15.10
2017-05-19T04:57:50.115Z,14.90
2017-05-19T05:00:18.061Z,14.90
2017-05-19T05:02:45.780Z,14.90
2017-05-19T05:05:13.510Z,14.90
2017-05-19T05:07:41.655Z,14.80
2017-05-19T05:10:10.944Z,14.70
2017-05-19T05:12:38.670Z,14.70
2017-05-19T05:15:06.428Z,14.90
2017-05-19T05:17:34.168Z,15.00
2017-05-19T05:20:02.644Z,15.10
2017-05-19T05:22:32.544Z,15.00
2017-05-19T05:25:00.691Z,15.10
2017-05-19T05:27:28.411Z,15.20
2017-05-19T05:29:56.188Z,15.10
2017-05-19T05:32:23.916Z,15.20
2017-05-19T05:34:51.641Z,15.20
2017-05-19T05:37:19.951Z,15.30
2017-05-19T05:39:48.425Z,15.30
2017-05-19T05:42:16.153Z,15.20
2017-05-19T05:44:43.909Z,15.20
2017-05-19T05:47:11.648Z,15.00
2017-05-19T05:49:39.383Z,15.00
2017-05-19T05:52:07.205Z,15.20
2017-05-19T05:54:34.920Z,15.40
2017-05-19T05:57:03.394Z,15.50
2017-05-19T05:59:31.353Z,15.60
2017-05-19T06:01:59.076Z,15.80
2017-05-19T06:04:26.799Z,15.90
2017-05-19T06:06:56.081Z,15.90
2017-05-19T06:09:23.809Z,16.00
2017-05-19T06:11:51.535Z,16.00
2017-05-19T06:14:21.007Z,15.90
2017-05-19T06:16:48.728Z,15.70
2017-05-19T06:19:16.454Z,15.70
2017-05-19T06:21:44.965Z,15.70
2017-05-19T06:24:12.692Z,15.90
2017-05-19T06:26:41.504Z,16.20
2017-05-19T06:29:09.748Z,16.40
2017-05-19T06:31:37.476Z,16.40
2017-05-19T06:34:05.245Z,16.20
2017-05-19T06:36:33.026Z,16.00
2017-05-19T06:39:00.774Z,15.90
2017-05-19T06:41:28.509Z,15.90
2017-05-19T06:43:57.561Z,15.90
2017-05-19T06:46:25.289Z,15.90
2017-05-19T06:48:53.017Z,15.90
2017-05-19T06:51:20.812Z,16.00
2017-05-19T06:53:48.588Z,16.10
2017-05-19T06:56:16.324Z,16.30
2017-05-19T06:58:44.458Z,16.50
2017-05-19T07:01:12.928Z,16.80
2017-05-19T07:03:40.656Z,17.10
2017-05-19T07:06:08.439Z,17.30
2017-05-19T07:08:36.160Z,17.50
2017-05-19T07:11:03.885Z,17.80
2017-05-19T07:13:32.274Z,18.00
2017-05-19T07:16:00.746Z,18.20
2017-05-19T07:18:28.468Z,18.30
2017-05-19T07:20:56.212Z,18.60
2017-05-19T07:23:23.956Z,18.60
2017-05-19T07:25:51.673Z,18.60
2017-05-19T07:28:20.064Z,18.80
2017-05-19T07:30:47.788Z,18.80
2017-05-19T07:33:15.508Z,18.50
2017-05-19T07:35:44.004Z,18.60
2017-05-19T07:38:12.472Z,18.30
2017-05-19T07:40:40.209Z,18.40
2017-05-19T07:43:07.957Z,18.30
2017-05-19T07:45:35.704Z,18.10
2017-05-19T07:48:03.434Z,18.00
2017-05-19T07:50:32.623Z,18.20
2017-05-19T07:53:01.087Z,18.30
2017-05-19T07:55:28.809Z,18.50
2017-05-19T07:57:57.328Z,18.80
2017-05-19T08:00:25.059Z,19.10
2017-05-19T08:02:52.782Z,19.40
2017-05-19T08:05:20.726Z,19.90
2017-05-19T08:07:48.451Z,20.20
2017-05-19T08:10:16.167Z,20.20
2017-05-19T08:12:44.820Z,20.00
2017-05-19T08:15:12.536Z,19.90
2017-05-19T08:17:40.268Z,19.70
2017-05-19T08:20:08.011Z,19.60
2017-05-19T08:22:35.760Z,19.80
2017-05-19T08:25:03.533Z,20.00
2017-05-19T08:27:31.301Z,20.00
2017-05-19T08:29:59.027Z,20.00
2017-05-19T08:32:26.748Z,19.90
2017-05-19T08:34:55.360Z,19.50
2017-05-19T08:37:23.090Z,19.20
2017-05-19T08:39:50.832Z,18.90
2017-05-19T08:42:18.588Z,18.70
2017-05-19T08:44:46.331Z,18.70
2017-05-19T08:47:14.084Z,19.00
2017-05-19T08:49:42.212Z,19.00
2017-05-19T08:52:09.931Z,19.00
2017-05-19T08:54:37.652Z,19.00
2017-05-19T08:57:05.399Z,18.80
2017-05-19T08:59:36.680Z,18.80
2017-05-19T09:02:05.140Z,18.70
2017-05-19T09:04:32.904Z,18.90
2017-05-19T09:07:01.372Z,19.20
2017-05-19T09:09:29.100Z,19.70
2017-05-19T09:11:57.213Z,20.20
2017-05-19T09:14:24.941Z,20.40
2017-05-19T09:16:52.669Z,20.50
2017-05-19T09:19:20.720Z,20.20
2017-05-19T09:21:48.440Z,20.00
2017-05-19T09:24:16.190Z,19.90
2017-05-19T09:26:44.716Z,19.80
2017-05-19T09:29:40.992Z,19.90
2017-05-19T09:32:08.733Z,19.90
2017-05-19T09:34:36.488Z,20.00
2017-05-19T09:37:05.060Z,19.90
2017-05-19T09:39:32.030Z,19.90
2017-05-19T09:41:59.764Z,19.60
2017-05-19T09:44:27.832Z,19.30
2017-05-19T09:46:55.564Z,19.30
2017-05-19T09:49:23.292Z,19.40
2017-05-19T09:51:52.261Z,19.50
2017-05-19T09:54:19.989Z,19.60
2017-05-19T09:56:47.720Z,20.00
2017-05-19T09:59:15.749Z,20.10
2017-05-19T10:01:43.481Z,20.00
2017-05-19T10:04:11.212Z,20.00
2017-05-19T10:06:38.984Z,20.00
2017-05-19T10:09:06.741Z,19.90
2017-05-19T10:11:34.469Z,19.90
2017-05-19T10:14:02.236Z,20.20
2017-05-19T10:16:29.993Z,20.20
2017-05-19T10:18:57.726Z,20.00
2017-05-19T10:21:25.835Z,19.60
2017-05-19T10:23:53.568Z,19.50
2017-05-19T10:26:21.304Z,19.70
2017-05-19T10:28:49.529Z,20.20
2017-05-19T10:31:17.263Z,20.70
2017-05-19T10:33:45.890Z,20.90
2017-05-19T10:36:13.677Z,20.90
2017-05-19T10:38:41.421Z,21.20
2017-05-19T10:41:09.247Z,21.60
2017-05-19T10:43:37.240Z,22.10
2017-05-19T10:46:04.977Z,22.50
2017-05-19T10:48:32.705Z,22.80
2017-05-19T10:51:00.473Z,22.60
2017-05-19T10:53:28.206Z,22.20
2017-05-19T10:55:55.946Z,22.20
2017-05-19T10:58:23.720Z,22.00
2017-05-19T11:00:51.472Z,22.00
2017-05-19T11:03:19.230Z,22.00
2017-05-19T11:05:47.844Z,22.20
2017-05-19T11:08:15.580Z,22.10
2017-05-19T11:10:43.308Z,22.20
2017-05-19T11:13:11.084Z,22.20
2017-05-19T11:15:38.816Z,22.20
2017-05-19T11:18:06.552Z,22.20
2017-05-19T11:20:34.332Z,22.20
2017-05-19T11:23:02.066Z,22.00
2017-05-19T11:25:30.180Z,22.00
2017-05-19T11:27:58.455Z,22.00
2017-05-19T11:30:26.183Z,22.40
2017-05-19T11:32:53.916Z,22.80
2017-05-19T11:35:21.925Z,22.80
2017-05-19T11:37:49.653Z,22.90
2017-05-19T11:40:17.393Z,23.30
2017-05-19T11:42:45.820Z,23.40
2017-05-19T11:45:13.558Z,23.00
2017-05-19T11:47:40.515Z,23.00
2017-05-19T11:50:08.512Z,22.70
2017-05-19T11:52:36.249Z,22.50
2017-05-19T11:55:03.987Z,22.40
2017-05-19T11:57:32.281Z,22.20
2017-05-19T12:00:00.009Z,22.20
2017-05-19T12:02:27.744Z,22.40
2017-05-19T12:04:55.695Z,22.70
2017-05-19T12:07:22.659Z,22.70
2017-05-19T12:09:57.121Z,23.20
2017-05-19T12:12:24.873Z,23.30
2017-05-19T12:14:52.606Z,23.70
2017-05-19T12:17:20.361Z,24.00
2017-05-19T12:19:48.121Z,23.70
2017-05-19T12:22:15.861Z,23.60
2017-05-19T12:24:45.288Z,23.10
2017-05-19T12:27:13.029Z,22.70
2017-05-19T12:29:40.001Z,22.60
2017-05-19T12:32:08.490Z,22.50
2017-05-19T12:34:36.224Z,23.00
2017-05-19T12:37:03.956Z,23.50
2017-05-19T12:39:31.875Z,23.90
2017-05-19T12:41:59.609Z,24.10
2017-05-19T12:44:26.584Z,24.00
2017-05-19T12:46:54.463Z,22.80
2017-05-19T12:49:22.193Z,22.00
2017-05-19T12:51:49.923Z,21.50
2017-05-19T12:54:18.976Z,21.40
2017-05-19T12:56:46.717Z,21.60
2017-05-19T12:59:14.457Z,21.50
2017-05-19T13:01:43.199Z,21.80
2017-05-19T13:04:10.949Z,21.60
2017-05-19T13:06:38.672Z,21.00
2017-05-19T13:09:06.672Z,20.40
2017-05-19T13:11:34.397Z,20.20
2017-05-19T13:14:02.135Z,20.00
2017-05-19T13:16:30.007Z,19.90
2017-05-19T13:18:57.742Z,19.80
2017-05-19T13:21:25.504Z,19.70
2017-05-19T13:23:53.335Z,19.50
2017-05-19T13:26:21.099Z,19.50
2017-05-19T13:28:48.867Z,19.30
2017-05-19T13:31:16.794Z,19.30
2017-05-19T13:33:44.540Z,19.20
2017-05-19T13:36:12.271Z,18.90
2017-05-19T13:38:40.260Z,18.60
2017-05-19T13:41:08.003Z,18.70
2017-05-19T13:43:35.749Z,18.70
2017-05-19T13:46:03.554Z,18.80
2017-05-19T13:48:31.295Z,18.90
2017-05-19T13:50:59.028Z,19.10
2017-05-19T13:53:27.041Z,19.40
2017-05-19T13:55:54.773Z,19.70
2017-05-19T13:58:22.504Z,20.70
2017-05-19T14:00:50.260Z,21.50
2017-05-19T14:03:18.009Z,21.70
2017-05-19T14:05:45.746Z,21.50
2017-05-19T14:08:13.514Z,21.40
2017-05-19T14:10:41.257Z,21.50
2017-05-19T14:13:09.013Z,21.40
2017-05-19T14:15:36.878Z,21.50
2017-05-19T14:18:04.615Z,21.20
2017-05-19T14:20:32.343Z,20.70
2017-05-19T14:23:00.201Z,20.50
2017-05-19T14:25:27.945Z,20.40
2017-05-19T14:27:55.681Z,20.40
2017-05-19T14:30:23.728Z,20.40
2017-05-19T14:32:51.470Z,20.30
2017-05-19T14:35:19.234Z,20.30
2017-05-19T14:37:47.199Z,20.10
2017-05-19T14:40:14.931Z,19.80
2017-05-19T14:42:42.682Z,19.50
2017-05-19T14:45:10.817Z,19.30
2017-05-19T14:47:38.564Z,19.10
2017-05-19T14:50:06.399Z,18.90
2017-05-19T14:52:34.165Z,18.70
2017-05-19T14:55:01.901Z,18.60
2017-05-19T14:57:29.705Z,18.30
2017-05-19T14:59:57.786Z,18.30
2017-05-19T15:02:25.517Z,18.30
2017-05-19T15:04:53.249Z,18.30
2017-05-19T15:07:21.320Z,18.50
2017-05-19T15:09:49.068Z,18.90
2017-05-19T15:12:16.805Z,19.20
2017-05-19T15:14:44.712Z,19.40
2017-05-19T15:17:12.457Z,19.40
2017-05-19T15:19:40.188Z,19.60
2017-05-19T15:22:07.972Z,19.80
2017-05-19T15:24:35.712Z,19.80
2017-05-19T15:27:03.477Z,20.10
2017-05-19T15:29:31.605Z,21.10
2017-05-19T15:31:59.342Z,23.20
2017-05-19T15:34:27.077Z,24.20
2017-05-19T15:36:54.832Z,23.70
2017-05-19T15:39:22.580Z,22.60
2017-05-19T15:41:50.332Z,22.00
2017-05-19T15:44:18.876Z,21.50
2017-05-19T15:46:46.611Z,21.00
2017-05-19T15:49:15.113Z,20.60
2017-05-19T15:51:43.527Z,20.10
2017-05-19T15:54:11.262Z,19.70
2017-05-19T15:56:39.001Z,19.30
2017-05-19T15:59:07.109Z,19.10
2017-05-19T16:01:34.851Z,18.80
2017-05-19T16:04:02.592Z,18.80
2017-05-19T16:06:30.934Z,18.70
2017-05-19T16:08:58.682Z,18.90
2017-05-19T16:11:26.417Z,18.70
2017-05-19T16:13:54.460Z,18.70
2017-05-19T16:16:22.201Z,18.90
2017-05-19T16:18:49.940Z,18.80
2017-05-19T16:21:16.980Z,18.80
2017-05-19T16:23:43.944Z,18.80
2017-05-19T16:26:11.703Z,18.70
2017-05-19T16:28:39.496Z,18.70
2017-05-19T16:31:07.238Z,18.80
2017-05-19T16:33:34.981Z,18.70
2017-05-19T16:36:03.038Z,18.60
2017-05-19T16:38:30.791Z,18.60
2017-05-19T16:40:58.545Z,18.70
2017-05-19T16:43:26.332Z,18.80
2017-05-19T16:45:54.109Z,19.10
2017-05-19T16:48:21.856Z,19.30
2017-05-19T16:50:49.822Z,19.70
2017-05-19T16:53:17.569Z,19.80
2017-05-19T16:55:45.300Z,20.00
2017-05-19T16:58:13.107Z,19.90
2017-05-19T17:00:40.084Z,20.00
2017-05-19T17:03:07.836Z,20.10
2017-05-19T17:05:36.304Z,20.00
2017-05-19T17:08:04.049Z,20.10
2017-05-19T17:10:31.793Z,20.00
2017-05-19T17:13:00.206Z,19.90
2017-05-19T17:15:27.942Z,20.00
2017-05-19T17:17:55.681Z,20.00
2017-05-19T17:20:23.433Z,19.90
2017-05-19T17:22:51.164Z,19.80
2017-05-19T17:25:18.915Z,19.80
2017-05-19T17:27:47.098Z,19.70
2017-05-19T17:30:14.833Z,19.60
2017-05-19T17:32:42.569Z,19.60
2017-05-19T17:35:10.322Z,19.60
2017-05-19T17:37:38.153Z,19.50
2017-05-19T17:40:05.884Z,19.40
2017-05-19T17:42:33.666Z,19.30
2017-05-19T17:45:01.407Z,19.30
2017-05-19T17:47:29.149Z,19.30
2017-05-19T17:49:57.288Z,19.20
2017-05-19T17:52:25.865Z,19.10
2017-05-19T17:54:53.607Z,19.10
2017-05-19T17:57:21.456Z,19.10
2017-05-19T17:59:49.233Z,19.00
2017-05-19T18:02:16.998Z,19.00
2017-05-19T18:04:45.262Z,18.90
2017-05-19T18:07:13.000Z,18.90
2017-05-19T18:09:40.737Z,18.80
2017-05-19T18:12:08.499Z,18.70
2017-05-19T18:14:36.248Z,18.40
2017-05-19T18:17:03.997Z,18.20
2017-05-19T18:19:32.426Z,18.00
2017-05-19T18:22:00.161Z,17.70
2017-05-19T18:24:27.136Z,17.70
2017-05-19T18:26:55.064Z,17.40
2017-05-19T18:29:22.810Z,17.40
2017-05-19T18:31:50.537Z,17.40
2017-05-19T18:34:18.660Z,17.30
2017-05-19T18:36:46.400Z,17.20
2017-05-19T18:39:14.146Z,17.10
2017-05-19T18:41:41.934Z,17.00
2017-05-19T18:44:09.674Z,16.90
2017-05-19T18:46:37.416Z,16.80
2017-05-19T18:49:05.858Z,16.80
2017-05-19T18:51:33.592Z,16.70
2017-05-19T18:54:04.515Z,16.50
2017-05-19T18:56:33.043Z,16.40
2017-05-19T18:59:00.038Z,16.30
2017-05-19T19:01:27.777Z,16.10
2017-05-19T19:03:55.911Z,16.00
2017-05-19T19:06:23.645Z,16.00
2017-05-19T19:08:51.396Z,16.00
2017-05-19T19:11:19.171Z,16.10
2017-05-19T19:13:46.920Z,16.00
2017-05-19T19:16:14.653Z,15.90
2017-05-19T19:18:42.496Z,15.90
2017-05-19T19:21:10.227Z,15.70
2017-05-19T19:23:38.002Z,15.60
2017-05-19T19:26:05.771Z,15.50
2017-05-19T19:28:33.534Z,15.50
2017-05-19T19:31:01.263Z,15.60
2017-05-19T19:33:29.806Z,15.40
2017-05-19T19:35:57.544Z,15.20
2017-05-19T19:38:25.279Z,15.20
2017-05-19T19:40:53.301Z,15.10
2017-05-19T19:43:21.049Z,15.10
2017-05-19T19:45:48.781Z,15.00
2017-05-19T19:48:16.085Z,15.00
2017-05-19T19:50:43.830Z,15.00
2017-05-19T19:53:11.581Z,15.00
2017-05-19T19:55:39.793Z,14.80
2017-05-19T19:58:07.542Z,14.70
2017-05-19T20:00:34.528Z,14.70
2017-05-19T20:03:02.305Z,14.50
2017-05-19T20:05:30.060Z,14.50
2017-05-19T20:07:57.794Z,14.50
2017-05-19T20:10:26.699Z,14.50
2017-05-19T20:12:54.440Z,14.50
2017-05-19T20:15:23.624Z,14.40
2017-05-19T20:17:51.600Z,14.40
2017-05-19T20:20:19.343Z,14.30
2017-05-19T20:22:47.084Z,14.30
2017-05-19T20:25:14.841Z,14.30
2017-05-19T20:27:42.577Z,14.40
2017-05-19T20:30:10.352Z,14.30
2017-05-19T20:32:38.124Z,14.30
2017-05-19T20:35:05.873Z,14.40
2017-05-19T20:37:33.605Z,14.40
2017-05-19T20:40:00.700Z,14.30
2017-05-19T20:42:28.437Z,14.20
2017-05-19T20:44:56.165Z,14.20
2017-05-19T20:47:23.947Z,14.10
2017-05-19T20:49:51.681Z,13.90
2017-05-19T20:52:19.421Z,13.90
2017-05-19T20:54:47.962Z,13.90
2017-05-19T20:57:15.721Z,13.80
2017-05-19T20:59:43.466Z,13.70
2017-05-19T21:02:11.228Z,13.50
2017-05-19T21:04:38.968Z,13.00
2017-05-19T21:07:06.743Z,12.40
2017-05-19T21:09:35.469Z,12.40
2017-05-19T21:12:04.031Z,12.50
2017-05-19T21:14:31.776Z,12.50
2017-05-19T21:16:59.565Z,12.50
2017-05-19T21:19:27.310Z,12.60
2017-05-19T21:21:55.056Z,12.50
2017-05-19T21:24:23.204Z,12.50
2017-05-19T21:26:50.945Z,12.60
2017-05-19T21:29:18.697Z,12.70
2017-05-19T21:31:46.657Z,12.70
2017-05-19T21:34:14.394Z,12.70
2017-05-19T21:36:42.136Z,12.80
2017-05-19T21:39:10.303Z,12.80
2017-05-19T21:41:38.034Z,12.70
2017-05-19T21:44:05.757Z,12.70
2017-05-19T21:46:33.875Z,12.70
2017-05-19T21:49:01.636Z,12.80
2017-05-19T21:51:29.373Z,12.70
2017-05-19T21:53:56.367Z,12.70
2017-05-19T21:56:25.220Z,12.60
2017-05-19T21:58:52.986Z,12.50
2017-05-19T22:01:21.464Z,12.40
2017-05-19T22:03:49.201Z,12.30
2017-05-19T22:06:16.937Z,12.20
2017-05-19T22:08:44.692Z,12.00
2017-05-19T22:11:12.434Z,12.00
2017-05-19T22:13:40.166Z,11.90
2017-05-19T22:16:09.359Z,11.90
2017-05-19T22:18:37.087Z,11.90
2017-05-19T22:21:04.845Z,11.90
2017-05-19T22:23:32.622Z,11.80
2017-05-19T22:26:00.376Z,11.60
2017-05-19T22:28:28.137Z,11.50
2017-05-19T22:30:55.903Z,11.40
2017-05-19T22:33:23.693Z,11.40
2017-05-19T22:35:51.452Z,11.30
2017-05-19T22:38:19.232Z,11.20
2017-05-19T22:40:46.996Z,11.40
2017-05-19T22:43:14.769Z,11.40
2017-05-19T22:45:42.957Z,11.40
2017-05-19T22:48:10.740Z,11.50
2017-05-19T22:50:38.478Z,11.60
2017-05-19T22:53:06.242Z,11.60
2017-05-19T22:55:34.005Z,11.60
2017-05-19T22:58:01.748Z,11.60
2017-05-19T23:00:29.840Z,11.60
2017-05-19T23:02:57.582Z,11.60
2017-05-19T23:05:25.312Z,11.60
2017-05-19T23:07:54.421Z,11.60
2017-05-19T23:10:22.161Z,11.60
2017-05-19T23:12:49.893Z,11.50
2017-05-19T23:15:17.961Z,11.50
2017-05-19T23:17:45.713Z,11.60
2017-05-19T23:20:13.464Z,11.60
2017-05-19T23:22:41.828Z,11.60
2017-05-19T23:25:09.560Z,11.70
2017-05-19T23:27:37.301Z,11.70
2017-05-19T23:30:05.370Z,11.70
2017-05-19T23:32:33.107Z,11.70
2017-05-19T23:35:00.843Z,11.80
2017-05-19T23:37:28.598Z,11.80
2017-05-19T23:39:57.285Z,11.70
2017-05-19T23:42:25.036Z,11.80
2017-05-19T23:44:53.240Z,11.70
2017-05-19T23:47:20.980Z,11.60
2017-05-19T23:49:48.708Z,11.60
2017-05-19T23:52:16.478Z,11.70
2017-05-19T23:54:44.229Z,11.70
2017-05-19T23:57:11.960Z,11.80
2017-05-19T23:59:41.105Z,11.70
